DTTA Airport Information

Runway Information
Runway 01 Length 10499 ft width 148 ft
Elevation 13 ft Threshold 0 ft Heading 12
Runway 19 Length 10499 ft Width 148 ft
Elevation 21 ft Threshold 0 ft Heading 192
Runway 11 Length 9318 ft width 148 ft
Elevation 19 ft Threshold 0 ft Heading 113
Runway 29 Length 9318 ft Width 148 ft
Elevation 11 ft Threshold 657 ft Heading 293
Airport Frequencies
Type APP Name TUNIS APP Frequency 121.2 MHZ
Type ATIS Name TUNIS ATIS Frequency 118.675 MHZ
Type GND Name TUNIS GND Frequency 121.9 MHZ
Type TWR Name TUNIS TWR Frequency 118.1 MHZ
Airport Navaids
Type NDB Name Tunis Frequency 386 KHZ
Type NDB Name Tunis Frequency 325 KHZ
Type VOR-DME Name Tunis Frequency 116500 KHZ
Airport Weather Information & NOTAM
ADDS - METARS form results

(1540 UTC 03 July 2020)
Data provider http://aviationweather.gov/metar/data/
 
METAR text: DTTA 031530Z 34013KT CAVOK 35/06 Q1012
Conditions at: DTTA (TUNIS/CARTHAGE , TN) observed 1530 UTC 03 July 2020
Temperature: 35.0°C (95°F)
Dewpoint: 6.0°C (43°F) [RH = 17%]
Pressure (altimeter): 29.88 inches Hg (1012.0 mb)
Winds: from the NNW (340 degrees) at 15 MPH (13 knots; 6.7 m/s)
Visibility: 6 or more miles (10+ km)
Ceiling: ceiling and visibility are OK
Clouds: unknown
Weather: no significant weather observed at this time

METAR text: DTTA 031500Z 01010KT CAVOK 36/03 Q1012
Conditions at: DTTA (TUNIS/CARTHAGE , TN) observed 1500 UTC 03 July 2020
Temperature: 36.0°C (97°F)
Dewpoint: 3.0°C (37°F) [RH = 13%]
Pressure (altimeter): 29.88 inches Hg (1012.0 mb)
Winds: from the N (10 degrees) at 12 MPH (10 knots; 5.1 m/s)
Visibility: 6 or more miles (10+ km)
Ceiling: ceiling and visibility are OK
Clouds: unknown
Weather: no significant weather observed at this time

Forecast for: DTTA (TUNIS/CARTHAGE , TN)
Text: TAF DTTA 031100Z 0312/0412 34012KT CAVOK
Forecast period: 1200 to 1800 UTC 03 July 2020
Forecast type: FROM: standard forecast or significant change
Winds: from the NNW (340 degrees) at 14 MPH (12 knots; 6.2 m/s)
Visibility: 6 or more miles 10+ km)
Ceiling: unknown
Clouds: missing
Weather: NSW  (no significant weather)
Text: BECMG 0318/0320 33015G25KT 9999 FEW026
Forecast period: 1800 UTC 03 July 2020 to 1200 UTC 04 July 2020
Forecast type: BECOMING: Conditions expected to become as follows by 2000 UTC 03 July 2020
Winds: from the NNW (330 degrees) at 17 MPH (15 knots; 7.7 m/s)
gusting to 29 MPH (25 knots; 12.9 m/s)
Visibility: 6 or more miles 10+ km)
Ceiling: at least 12,000 feet AGL
Clouds: few clouds at 2600 feet AGL
Weather: NSW  (no significant weather)
Text: TEMPO 0405/0412 32025G35KT
Forecast period: 0500 to 1200 UTC 04 July 2020
Forecast type: TEMPORARY: The following changes expected for less than half the time period
Winds: from the NW (320 degrees) at 29 MPH (25 knots; 12.9 m/s)
gusting to 40 MPH (35 knots; 18.0 m/s)
Visibility: missing
Ceiling: unknown
Clouds: missing
Weather: no significant weather forecast for this period

Logo Ivao